Latest Weather Observations for Telfer

IDW60801

Issued at 5:02 am WST Monday 20 April 2015 (issued every 30 minutes, with the page automatically refreshed every 10 minutes)

About weather observations | Map of weather stations | Latest weather observations for WA | Other Formats
Station Details ID: 013030 Name: TELFER AERO Lat: -21.71 Lon: 122.23 Height: 291.9 m
Data from the previous 72 hours. | See also: Recent months at Telfer
Date/Time
WST
Temp
°C
App
Temp
°C
Dew
Point
Rel
Hum
%
Delta-T
°C
Wind Press
QNH
hPa
Press
MSL
hPa
Rain
since 9 am
mm
Dir
 
Spd
km/h
Gust
km/h
Spd
kts
Gust
kts
20/05:00am 19.2 14.2 9.4 53 5.2 ESE 26 37 14 20 1019.2 1017.4 0.2
20/04:30am 19.4 15.6 9.9 54 5.1 ESE 20 28 11 15 1019.2 1017.4 0.2
20/04:00am 19.4 15.3 10.1 55 5.0 ESE 22 30 12 16 1019.1 1017.3 0.2
20/03:30am 19.2 15.4 11.3 60 4.4 SE 22 28 12 15 1019.2 1017.4 0.2
20/03:00am 19.2 16.3 12.2 64 3.9 SE 19 24 10 13 1019.1 1017.3 0.2
20/02:30am 19.8 16.8 12.1 61 4.3 SE 19 22 10 12 1019.0 1017.2 0.2
20/02:00am 20.0 17.4 12.0 60 4.5 SE 17 20 9 11 1019.0 1017.2 0.2
20/01:30am 20.6 17.5 11.5 56 5.1 ESE 19 22 10 12 1019.2 1017.4 0.2
20/01:00am 21.3 17.9 11.1 52 5.7 SE 20 28 11 15 1019.3 1017.5 0.2
20/12:30am 21.3 17.0 10.8 51 5.8 ESE 24 28 13 15 1019.6 1017.8 0.2
20/12:00am 21.0 18.4 11.9 56 5.1 ESE 17 20 9 11 1020.1 1018.3 0.2
 
Date/Time
WST
Temp
°C
App
Temp
°C
Dew
Point
Rel
Hum
%
Delta-T
°C
Wind Press
QNH
hPa
Press
MSL
hPa
Rain
since 9 am
mm
Dir
 
Spd
km/h
Gust
km/h
Spd
kts
Gust
kts
19/11:30pm 21.9 18.3 10.7 49 6.2 ESE 20 28 11 15 1020.5 1018.6 0.2
19/11:00pm 22.6 19.1 10.1 45 6.9 E 19 24 10 13 1020.6 1018.7 0.2
19/10:30pm 22.9 18.9 10.3 45 7.0 ESE 22 30 12 16 1020.6 1018.7 0.2
19/10:00pm 23.9 19.3 8.3 37 8.4 ESE 22 30 12 16 1020.4 1018.5 0.2
19/09:30pm 24.0 19.3 7.6 35 8.7 ESE 22 30 12 16 1020.4 1018.5 0.2
19/09:00pm 24.0 19.6 7.6 35 8.7 ESE 20 26 11 14 1020.5 1018.6 0.2
19/08:30pm 24.3 20.0 7.0 33 9.1 ESE 19 24 10 13 1020.5 1018.6 0.2
19/08:00pm 24.6 19.8 7.3 33 9.2 ESE 22 30 12 16 1020.4 1018.5 0.2
19/07:30pm 24.8 20.5 7.9 34 9.1 ESE 20 30 11 16 1019.9 1018.1 0.2
19/07:00pm 24.7 21.1 8.2 35 8.9 ESE 17 20 9 11 1019.5 1017.7 0.2
19/06:30pm 25.0 21.3 8.1 34 9.1 ESE 17 22 9 12 1019.1 1017.3 0.2
19/06:00pm 25.3 21.1 8.3 34 9.2 ESE 20 26 11 14 1018.7 1016.9 0.2
19/05:30pm 25.5 20.7 8.9 35 9.1 ESE 24 32 13 17 1018.3 1016.5 0.2
19/05:00pm 25.6 20.9 9.4 36 9.0 ESE 24 30 13 16 1018.4 1016.6 0.2
19/04:30pm 25.8 20.5 10.0 37 8.9 ESE 28 35 15 19 1018.4 1016.6 0.2
19/04:00pm 25.7 19.9 10.7 39 8.5 ESE 32 41 17 22 1018.4 1016.6 0.2
19/03:30pm 25.7 21.2 12.5 44 7.7 ESE 28 37 15 20 1018.6 1016.8 0.2
19/03:00pm 25.2 20.5 13.1 47 7.1 ESE 30 37 16 20 1018.6 1016.8 0.2
19/02:30pm 24.8 20.4 13.0 47 6.9 SE 28 37 15 20 1018.5 1016.7 0.2
19/02:00pm 24.6 21.2 13.8 51 6.4 SE 24 35 13 19 1018.7 1016.9 0.2
19/01:30pm 23.6 19.5 13.8 54 5.8 SE 28 35 15 19 1019.1 1017.3 0.0
19/01:00pm 23.0 19.8 14.3 58 5.2 SE 24 30 13 16 1019.5 1017.7 0.0
19/12:30pm 23.0 20.6 13.8 56 5.4 E 19 22 10 12 1019.8 1018.0 0.0
19/12:00pm 22.2 19.8 14.3 61 4.7 ESE 20 28 11 15 1020.4 1018.5 0.0
19/11:30am 22.1 18.1 14.2 61 4.7 ESE 28 39 15 21 1020.8 1018.9 0.0
19/11:00am 22.7 18.3 12.9 54 5.7 ESE 28 39 15 21 1020.8 1018.9 0.0
19/10:30am 22.4 18.0 12.9 55 5.5 ESE 28 37 15 20 1020.8 1018.9 0.0
19/10:00am 22.4 17.8 12.4 53 5.7 ESE 28 39 15 21 1020.6 1018.7 0.0
19/09:30am 21.9 18.2 12.7 56 5.3 ESE 24 32 13 17 1020.5 1018.6 0.0
19/09:00am 20.9 17.7 13.1 61 4.5 SE 22 28 12 15 1020.4 1018.5 0.2
19/08:30am 21.1 17.4 11.4 54 5.4 SE 22 32 12 17 1019.8 1018.0 0.2
19/08:00am 20.8 16.5 10.9 53 5.5 SE 24 33 13 18 1019.5 1017.7 0.2
19/07:30am 21.8 16.6 9.0 44 6.9 SE 26 33 14 18 1019.0 1017.2 0.0
19/07:00am 21.9 16.6 8.4 42 7.2 SE 26 33 14 18 1018.5 1016.7 0.0
19/06:30am 21.6 16.7 8.5 43 7.0 SE 24 33 13 18 1017.9 1016.0 0.0
19/06:00am 21.6 16.2 8.1 42 7.1 SE 26 32 14 17 1017.5 1015.6 0.0
19/05:30am 21.6 16.6 8.1 42 7.2 SE 24 32 13 17 1017.3 1015.4 0.0
19/05:00am 21.6 16.7 8.5 43 7.0 SE 24 30 13 16 1017.1 1015.2 0.0
19/04:30am 21.5 17.0 8.4 43 7.0 SE 22 30 12 16 1017.0 1015.1 0.0
19/04:00am 21.1 17.2 9.4 47 6.3 SE 20 26 11 14 1017.0 1015.1 0.0
19/03:30am 21.3 17.3 9.2 46 6.5 SE 20 24 11 13 1017.1 1015.2 0.0
19/03:00am 21.2 18.0 10.1 49 6.1 SSE 17 20 9 11 1017.1 1015.2 0.0
19/02:30am 20.8 19.2 11.4 55 5.3 SSE 11 17 6 9 1017.1 1015.2 0.0
19/02:00am 21.5 18.0 10.3 49 6.2 SE 19 24 10 13 1016.8 1014.9 0.0
19/01:30am 23.0 18.3 7.9 38 8.0 SSE 22 28 12 15 1017.2 1015.3 0.0
19/01:00am 22.0 19.5 11.1 50 6.1 SSE 15 19 8 10 1017.4 1015.5 0.0
19/12:30am 22.1 19.6 11.2 50 6.1 SE 15 19 8 10 1017.7 1015.8 0.0
19/12:00am 22.9 19.4 10.3 45 7.0 SSE 19 24 10 13 1017.8 1015.9 0.0
 
Date/Time
WST
Temp
°C
App
Temp
°C
Dew
Point
Rel
Hum
%
Delta-T
°C
Wind Press
QNH
hPa
Press
MSL
hPa
Rain
since 9 am
mm
Dir
 
Spd
km/h
Gust
km/h
Spd
kts
Gust
kts
18/11:30pm 25.4 21.1 7.1 31 9.7 S 19 28 10 15 1018.0 1016.2 0.0
18/11:00pm 25.5 21.0 7.1 31 9.8 S 20 26 11 14 1018.0 1016.2 0.0
18/10:30pm 25.6 20.4 7.2 31 9.8 S 24 32 13 17 1018.1 1016.3 0.0
18/10:00pm 25.9 20.8 7.5 31 9.9 S 24 33 13 18 1018.0 1016.2 0.0
18/09:30pm 26.3 21.8 6.9 29 10.3 S 20 28 11 15 1018.0 1016.2 0.0
18/09:00pm 26.5 22.1 6.5 28 10.6 S 19 24 10 13 1018.1 1016.3 0.0
18/08:30pm 26.7 22.3 6.7 28 10.7 S 19 24 10 13 1017.9 1016.0 0.0
18/08:00pm 26.8 22.5 6.8 28 10.7 S 19 24 10 13 1017.7 1015.8 0.0
18/07:30pm 26.9 22.7 7.4 29 10.5 S 19 26 10 14 1017.4 1015.5 0.0
18/07:00pm 27.2 23.0 8.1 30 10.4 S 20 28 11 15 1017.0 1015.1 0.0
18/06:30pm 27.5 24.0 8.9 31 10.3 SSE 17 20 9 11 1016.8 1014.9 0.0
18/06:00pm 27.8 24.4 9.1 31 10.4 SE 17 22 9 12 1016.5 1014.7 0.0
18/05:30pm 28.0 24.3 9.3 31 10.5 SE 19 26 10 14 1016.0 1014.2 0.0
18/05:00pm 28.2 23.6 9.5 31 10.5 SE 24 32 13 17 1015.7 1013.9 0.0
18/04:30pm 28.3 24.1 9.6 31 10.5 SSE 22 28 12 15 1015.6 1013.8 0.0
18/04:00pm 28.6 24.4 9.8 31 10.6 SE 22 28 12 15 1015.5 1013.7 0.0
18/03:30pm 28.7 24.5 9.9 31 10.7 SE 22 30 12 16 1015.2 1013.4 0.0
18/03:00pm 28.8 24.7 10.0 31 10.7 SSE 22 33 12 18 1015.3 1013.5 0.0
18/02:30pm 28.9 24.4 10.1 31 10.7 SE 24 32 13 17 1015.4 1013.6 0.0
18/02:00pm 28.7 24.5 9.9 31 10.7 SE 22 32 12 17 1015.6 1013.8 0.0
18/01:30pm 28.1 23.2 9.9 32 10.3 SE 26 39 14 21 1015.8 1014.0 0.0
18/01:00pm 28.6 23.8 10.3 32 10.4 SE 26 37 14 20 1016.1 1014.3 0.0
18/12:30pm 28.6 23.4 10.3 32 10.5 SE 28 39 15 21 1016.4 1014.6 0.0
18/12:00pm 28.1 23.8 10.8 34 9.9 ESE 24 39 13 21 1016.9 1015.0 0.0
18/11:30am 27.1 21.6 10.7 35 9.4 ESE 30 41 16 22 1017.2 1015.3 0.0
18/11:00am 26.1 21.1 11.1 39 8.6 ESE 28 41 15 22 1017.8 1015.9 0.0
18/10:30am 25.4 20.4 10.8 40 8.3 SE 28 37 15 20 1018.0 1016.2 0.0
18/10:00am 25.2 19.6 11.4 42 7.9 SE 32 43 17 23 1018.3 1016.5 0.0
18/09:30am 25.3 19.7 11.5 42 7.9 SE 32 43 17 23 1018.4 1016.6 0.0
18/09:00am 24.7 19.5 11.6 44 7.5 SE 30 43 16 23 1018.3 1016.5 0.0
18/08:30am 24.2 18.4 11.5 45 7.3 ESE 33 41 18 22 1018.3 1016.5 0.0
18/08:00am 23.2 18.0 11.6 48 6.6 SE 30 41 16 22 1017.8 1015.9 0.0
18/07:30am 22.8 17.2 11.5 49 6.4 SE 32 39 17 21 1017.6 1015.7 0.0
18/07:00am 22.5 18.2 10.9 48 6.5 SE 24 32 13 17 1017.5 1015.6 0.0
18/06:30am 22.4 18.0 10.5 47 6.6 SE 24 35 13 19 1017.0 1015.1 0.0
18/06:00am 22.5 18.2 10.6 47 6.6 SE 24 33 13 18 1016.5 1014.7 0.0
18/05:30am 22.7 18.7 10.5 46 6.8 SE 22 32 12 17 1016.4 1014.6 0.0
18/05:00am 22.9 19.0 10.7 46 6.8 SE 22 28 12 15 1016.3 1014.5 0.0
18/04:30am 22.9 19.0 10.7 46 6.8 SE 22 28 12 15 1016.0 1014.2 0.0
18/04:00am 23.0 19.1 10.8 46 6.8 SE 22 28 12 15 1015.9 1014.1 0.0
18/03:30am 23.1 19.7 11.2 47 6.7 SE 20 30 11 16 1015.8 1014.0 0.0
18/03:00am 23.2 19.8 11.3 47 6.7 SE 20 28 11 15 1015.8 1014.0 0.0
18/02:30am 23.4 19.7 11.5 47 6.8 SE 22 28 12 15 1015.7 1013.9 0.0
18/02:00am 23.5 20.2 11.5 47 6.8 SE 20 28 11 15 1015.8 1014.0 0.0
18/01:30am 23.6 20.6 12.0 48 6.7 SE 19 22 10 12 1016.1 1014.3 0.0
18/01:00am 23.7 19.8 12.0 48 6.7 SE 24 32 13 17 1015.9 1014.1 0.0
18/12:30am 23.7 20.3 12.4 49 6.5 SE 22 30 12 16 1016.1 1014.3 0.0
18/12:00am 23.8 20.0 12.4 48 6.6 SE 24 32 13 17 1016.3 1014.5 0.0
 
Date/Time
WST
Temp
°C
App
Temp
°C
Dew
Point
Rel
Hum
%
Delta-T
°C
Wind Press
QNH
hPa
Press
MSL
hPa
Rain
since 9 am
mm
Dir
 
Spd
km/h
Gust
km/h
Spd
kts
Gust
kts
17/11:30pm 23.9 20.1 12.5 49 6.6 SE 24 30 13 16 1016.5 1014.7 0.0
17/11:00pm 24.0 20.6 12.6 49 6.6 SE 22 28 12 15 1016.9 1015.0 0.0
17/10:30pm 24.1 20.4 12.7 49 6.6 SE 24 32 13 17 1017.1 1015.2 0.0
17/10:00pm 24.3 20.2 12.6 48 6.8 SSE 26 35 14 19 1017.3 1015.4 0.0
17/09:30pm 24.7 19.9 13.0 48 6.9 SSE 30 37 16 20 1017.2 1015.3 0.0
17/09:00pm 25.3 21.5 12.5 45 7.5 SSE 24 32 13 17 1017.1 1015.2 0.0
17/08:30pm 25.6 22.6 12.4 43 7.7 SE 20 32 11 17 1017.0 1015.1 0.0
17/08:00pm 26.0 22.2 12.5 43 7.9 SE 24 30 13 16 1016.6 1014.8 0.0
17/07:30pm 26.3 23.0 12.7 43 8.0 SE 22 30 12 16 1016.3 1014.5 0.0
17/07:00pm 26.5 23.9 13.3 44 7.8 SE 19 20 10 11 1016.1 1014.3 0.0
17/06:30pm 26.7 25.7 13.4 43 7.9 ESE 11 15 6 8 1015.8 1014.0 0.0
17/06:00pm 27.0 24.8 13.4 43 8.1 ESE 17 22 9 12 1015.5 1013.7 0.0
17/05:30pm 27.3 24.6 13.6 43 8.2 SE 20 28 11 15 1015.3 1013.5 0.0
17/05:00pm 27.6 25.0 13.9 43 8.3 SSE 20 28 11 15 1015.2 1013.4 0.0
17/04:30pm 27.7 24.4 14.0 43 8.3 SE 24 30 13 16 1015.0 1013.2 0.0
17/04:00pm 27.8 24.7 14.4 43 8.1 SE 24 30 13 16 1014.8 1012.9 0.0
17/03:30pm 27.8 25.4 14.4 43 8.1 SE 20 26 11 14 1014.9 1013.1 0.0
17/03:00pm 27.7 25.4 14.7 45 7.9 SE 20 28 11 15 1015.1 1013.3 0.0
17/02:30pm 26.9 24.6 14.6 46 7.5 SE 20 26 11 14 1015.4 1013.6 0.0
17/02:00pm 26.5 24.2 14.6 48 7.2 SE 20 30 11 16 1015.6 1013.8 0.0
17/01:30pm 26.2 23.1 14.6 48 7.0 ESE 24 32 13 17 1015.8 1014.0 0.0
17/01:00pm 25.2 22.0 14.3 50 6.5 SE 24 33 13 18 1016.3 1014.5 0.0
17/12:30pm 23.9 20.0 14.3 55 5.7 SE 28 37 15 20 1017.0 1015.1 0.0
17/12:00pm 22.8 19.1 13.8 57 5.3 SE 26 32 14 17 1018.0 1016.2 0.0
17/11:30am 23.0 19.3 14.0 57 5.3 SE 26 33 14 18 1018.4 1016.6 0.0
17/11:00am 22.1 18.2 14.5 62 4.5 SE 28 35 15 19 1018.7 1016.9 0.0
17/10:30am 22.5 17.5 13.3 56 5.4 ESE 32 41 17 22 1019.2 1017.4 0.0
17/10:00am 22.8 18.2 13.6 56 5.4 ESE 30 41 16 22 1019.1 1017.3 0.0
17/09:30am 22.1 17.5 13.5 58 5.0 ESE 30 43 16 23 1019.4 1017.6 0.0
17/09:00am 21.8 16.9 13.7 60 4.7 SE 32 41 17 22 1019.6 1017.8 0.0
17/08:30am 22.3 16.9 12.8 55 5.5 ESE 33 43 18 23 1019.3 1017.5 0.0
17/08:00am 22.4 17.2 12.9 55 5.5 SE 32 41 17 22 1019.6 1017.8 0.0
17/07:30am 22.5 17.4 13.0 55 5.5 SE 32 41 17 22 1019.3 1017.5 0.0
17/07:00am 22.5 17.5 13.3 56 5.4 SE 32 39 17 21 1018.9 1017.1 0.0
17/06:30am 22.7 17.7 13.5 56 5.4 SE 32 39 17 21 1018.8 1017.0 0.0
17/06:00am 22.8 18.8 14.1 58 5.1 SE 28 39 15 21 1018.6 1016.8 0.0
17/05:30am 22.9 18.5 14.2 58 5.2 SE 30 39 16 21 1018.4 1016.6 0.0

Other Formats:

Comma delimited format used in spreadsheet applications
http://www.bom.gov.au/fwo/IDW60801/IDW60801.94319.axf

JavaScript Object Notation format (JSON) in row-major order
http://www.bom.gov.au/fwo/IDW60801/IDW60801.94319.json